Time;durP1;ratioP1;P1;durP2;ratioP2;P2;SDS_P1;SDS_P2;PMS_P1;PMS_P2;Temp;Humidity;BMP_temperature;BMP_pressure;BME280_temperature;BME280_humidity;BME280_pressure;Samples;Min_cycle;Max_cycle;Signal;HPM_P1;HPM_P2
2022/05/12 00:02:03;;;;;;;0.30;0.30;;;;;;;8.99;100.00;99617.84;7391444;19;20011;-50
2022/05/12 00:04:32;;;;;;;0.93;0.32;;;;;;;9.01;100.00;99626.47;7395524;19;20025;-49
2022/05/12 00:06:59;;;;;;;0.40;0.40;;;;;;;9.05;100.00;99627.06;7391364;19;20014;-49
2022/05/12 00:09:26;;;;;;;0.80;0.73;;;;;;;9.08;100.00;99642.03;7391484;19;20051;-49
2022/05/12 00:11:53;;;;;;;0.40;0.40;;;;;;;9.07;100.00;99635.69;7392746;19;20062;-49
2022/05/12 00:14:21;;;;;;;0.43;0.43;;;;;;;9.08;100.00;99623.38;7392128;19;20022;-49
2022/05/12 00:16:48;;;;;;;1.40;1.30;;;;;;;9.04;100.00;99624.78;7390122;19;20015;-49
2022/05/12 00:19:14;;;;;;;0.60;0.57;;;;;;;9.16;100.00;99637.66;7390251;19;20015;-49
2022/05/12 00:21:40;;;;;;;1.80;0.38;;;;;;;9.18;100.00;99635.22;7391349;19;20029;-50
2022/05/12 00:24:07;;;;;;;0.95;0.65;;;;;;;9.18;100.00;99645.56;7393216;19;20082;-49
2022/05/12 00:26:36;;;;;;;0.28;0.22;;;;;;;9.27;100.00;99648.28;7390722;19;20018;-49
2022/05/12 00:29:07;;;;;;;4.22;0.50;;;;;;;9.26;100.00;99649.50;7392579;19;20007;-49
2022/05/12 00:31:36;;;;;;;0.98;0.45;;;;;;;9.29;100.00;99657.66;7388395;19;20074;-50
2022/05/12 00:34:04;;;;;;;7.38;0.32;;;;;;;9.36;100.00;99653.75;7391465;19;20010;-49
2022/05/12 00:36:31;;;;;;;0.25;0.25;;;;;;;9.36;100.00;99662.09;7390991;19;20018;-49
2022/05/12 00:38:57;;;;;;;1.95;0.85;;;;;;;9.40;100.00;99657.16;7389745;19;20010;-49
2022/05/12 00:41:23;;;;;;;0.95;0.65;;;;;;;9.49;100.00;99660.63;7390902;19;20015;-49
2022/05/12 00:43:53;;;;;;;0.60;0.50;;;;;;;9.52;100.00;99658.94;7392808;19;20011;-49
2022/05/12 00:46:24;;;;;;;0.82;0.40;;;;;;;9.60;100.00;99654.53;7390226;19;20015;-50
2022/05/12 00:48:55;;;;;;;2.67;0.88;;;;;;;9.63;100.00;99648.03;7390200;19;20010;-50
2022/05/12 00:51:36;;;;;;;0.73;0.45;;;;;;;9.64;100.00;99652.34;7388941;19;20014;-50
2022/05/12 00:54:04;;;;;;;;;;;;;;;9.65;100.00;99648.34;7393246;19;20006;-50
2022/05/12 00:56:34;;;;;;;12.93;0.77;;;;;;;9.58;100.00;99657.03;7387859;19;19914;-50
2022/05/12 00:59:06;;;;;;;0.43;0.43;;;;;;;9.55;100.00;99660.78;7389567;19;20019;-49
2022/05/12 01:01:32;;;;;;;4.22;0.47;;;;;;;9.49;100.00;99659.88;7388275;19;20019;-50
2022/05/12 01:04:00;;;;;;;3.50;0.82;;;;;;;9.36;100.00;99662.88;7392271;19;20036;-50
2022/05/12 01:06:27;;;;;;;0.55;0.55;;;;;;;9.28;100.00;99663.69;7390358;19;20037;-50
2022/05/12 01:08:53;;;;;;;6.03;0.60;;;;;;;9.21;100.00;99662.03;7389784;19;20352;-49
2022/05/12 01:11:21;;;;;;;3.13;0.65;;;;;;;9.19;100.00;99664.50;7389825;19;20076;-50
2022/05/12 01:13:59;;;;;;;0.55;0.30;;;;;;;9.16;100.00;99665.44;7389766;19;20038;-49
2022/05/12 01:16:43;;;;;;;0.30;0.30;;;;;;;9.09;100.00;99655.47;7389085;19;20086;-50
2022/05/12 01:19:13;;;;;;;0.68;0.20;;;;;;;9.07;100.00;99663.47;7389515;19;20130;-50
2022/05/12 01:21:40;;;;;;;0.35;0.35;;;;;;;9.01;100.00;99665.38;7387602;19;20475;-50
2022/05/12 01:24:06;;;;;;;0.20;0.20;;;;;;;8.92;100.00;99662.63;7392058;19;20038;-49
2022/05/12 01:26:33;;;;;;;2.28;0.40;;;;;;;8.86;100.00;99664.50;7388786;19;20010;-49
2022/05/12 01:29:00;;;;;;;0.55;0.40;;;;;;;8.81;100.00;99673.50;7390420;19;20466;-50
2022/05/12 01:31:26;;;;;;;0.40;0.40;;;;;;;8.75;100.00;99669.78;7387209;19;20052;-49
2022/05/12 01:33:52;;;;;;;0.20;0.20;;;;;;;8.73;100.00;99671.47;7390374;19;20014;-49
2022/05/12 01:36:20;;;;;;;7.15;0.57;;;;;;;8.67;100.00;99674.13;7389769;19;20018;-49
2022/05/12 01:38:47;;;;;;;0.55;0.55;;;;;;;8.60;100.00;99674.44;7388374;19;20806;-49
2022/05/12 01:41:15;;;;;;;1.05;0.75;;;;;;;8.58;100.00;99674.16;7388515;19;20373;-49
2022/05/12 01:43:41;;;;;;;2.90;0.57;;;;;;;8.57;100.00;99686.50;7389268;19;20393;-49
2022/05/12 01:46:07;;;;;;;0.52;0.52;;;;;;;8.53;100.00;99685.91;7388876;19;20412;-49
2022/05/12 01:48:34;;;;;;;0.68;0.68;;;;;;;8.45;100.00;99684.66;7388726;19;20070;-49
2022/05/12 01:51:01;;;;;;;1.05;0.57;;;;;;;8.43;100.00;99687.13;7386608;19;20006;-49
2022/05/12 01:53:27;;;;;;;0.30;0.30;;;;;;;8.37;100.00;99689.78;7388892;19;20007;-49
2022/05/12 01:55:53;;;;;;;0.20;0.20;;;;;;;8.43;100.00;99678.81;7387214;19;20011;-49
2022/05/12 01:58:21;;;;;;;1.33;0.52;;;;;;;8.48;100.00;99688.50;7390437;19;20011;-49
2022/05/12 02:00:47;;;;;;;0.75;0.43;;;;;;;8.48;100.00;99686.50;7395696;19;20014;-49
2022/05/12 02:03:14;;;;;;;0.35;0.35;;;;;;;8.49;100.00;99678.97;7396747;19;20586;-49
2022/05/12 02:05:41;;;;;;;0.30;0.30;;;;;;;8.52;100.00;99686.34;7395674;19;20006;-49
2022/05/12 02:08:09;;;;;;;0.38;0.38;;;;;;;8.46;100.00;99680.66;7393478;19;20351;-49
2022/05/12 02:10:38;;;;;;;1.85;0.40;;;;;;;8.44;100.00;99683.13;7393582;19;20032;-49
2022/05/12 02:13:07;;;;;;;0.40;0.30;;;;;;;8.43;100.00;99676.03;7396729;19;20011;-49
2022/05/12 02:15:34;;;;;;;0.43;0.43;;;;;;;8.40;100.00;99685.31;7395539;19;20021;-49
2022/05/12 02:18:00;;;;;;;0.77;0.77;;;;;;;8.39;100.00;99676.19;7395991;19;20007;-49
2022/05/12 02:20:27;;;;;;;0.65;0.60;;;;;;;8.38;100.00;99679.44;7395002;19;20011;-49
2022/05/12 02:22:53;;;;;;;0.40;0.40;;;;;;;8.37;100.00;99689.00;7395709;19;20010;-49
2022/05/12 02:25:19;;;;;;;0.50;0.50;;;;;;;8.31;100.00;99693.63;7394265;19;20044;-49
2022/05/12 02:27:46;;;;;;;0.90;0.90;;;;;;;8.27;100.00;99690.25;7394411;19;20027;-49
2022/05/12 02:30:25;;;;;;;0.20;0.20;;;;;;;8.20;100.00;99696.84;7397370;19;20011;-49
2022/05/12 02:32:52;;;;;;;0.82;0.82;;;;;;;8.13;100.00;99697.16;7394259;19;20601;-49
2022/05/12 02:35:19;;;;;;;1.23;0.60;;;;;;;8.11;100.00;99698.84;7394872;19;20486;-49
2022/05/12 02:37:45;;;;;;;0.73;0.30;;;;;;;8.05;100.00;99709.03;7394421;19;20019;-49
2022/05/12 02:40:15;;;;;;;0.65;0.65;;;;;;;7.96;100.00;99704.25;7394638;19;20451;-49
2022/05/12 02:42:42;;;;;;;1.05;0.60;;;;;;;7.94;100.00;99708.69;7395401;19;20430;-49
2022/05/12 02:45:09;;;;;;;0.30;0.30;;;;;;;7.98;100.00;99701.00;7391502;19;20014;-49
2022/05/12 02:47:35;;;;;;;2.58;0.77;;;;;;;7.97;100.00;99705.75;7394191;19;21120;-49
2022/05/12 02:50:02;;;;;;;0.38;0.38;;;;;;;7.94;100.00;99708.69;7393798;19;20522;-49
2022/05/12 02:52:28;;;;;;;0.47;0.47;;;;;;;7.94;100.00;99711.47;7394172;19;20036;-49
2022/05/12 02:54:54;;;;;;;0.80;0.65;;;;;;;7.97;100.00;99721.66;7394512;19;20013;-49
2022/05/12 02:57:21;;;;;;;0.35;0.35;;;;;;;7.97;100.00;99721.66;7393955;19;20027;-49
2022/05/12 02:59:47;;;;;;;0.57;0.57;;;;;;;7.98;100.00;99723.19;7391472;19;20021;-49
2022/05/12 03:02:13;;;;;;;0.63;0.63;;;;;;;8.01;100.00;99733.38;7392348;19;20502;-49
2022/05/12 03:04:39;;;;;;;0.82;0.82;;;;;;;8.06;100.00;99725.19;7396513;19;20014;-49
2022/05/12 03:07:06;;;;;;;0.20;0.20;;;;;;;8.08;100.00;99722.72;7393010;19;20007;-49
2022/05/12 03:09:32;;;;;;;0.63;0.63;;;;;;;8.11;100.00;99721.03;7391214;19;20010;-49
2022/05/12 03:11:58;;;;;;;0.68;0.57;;;;;;;8.08;100.00;99719.16;7394968;19;20021;-49
2022/05/12 03:14:24;;;;;;;6.72;1.00;;;;;;;8.03;100.00;99719.81;7395510;19;20014;-49
2022/05/12 03:16:53;;;;;;;0.43;0.40;;;;;;;8.00;100.00;99726.25;7392631;19;20480;-49
2022/05/12 03:19:21;;;;;;;0.50;0.35;;;;;;;7.90;100.00;99727.50;7392204;19;20048;-49
2022/05/12 03:21:47;;;;;;;0.77;0.75;;;;;;;7.80;100.00;99723.16;7392679;19;20006;-49
2022/05/12 03:24:15;;;;;;;3.63;0.60;;;;;;;7.76;100.00;99733.63;7395889;19;20034;-49
2022/05/12 03:26:42;;;;;;;0.55;0.32;;;;;;;7.81;100.00;99725.47;7392748;19;20394;-49
2022/05/12 03:29:08;;;;;;;1.58;0.90;;;;;;;7.81;100.00;99733.03;7394543;19;20038;-50
2022/05/12 03:31:36;;;;;;;0.82;0.82;;;;;;;7.79;100.00;99722.41;7390235;19;20041;-49
2022/05/12 03:34:02;;;;;;;0.70;0.70;;;;;;;7.80;100.00;99725.91;7394290;19;20011;-49
2022/05/12 03:36:28;;;;;;;3.10;0.63;;;;;;;7.76;100.00;99728.06;7392924;19;20363;-49
2022/05/12 03:38:54;;;;;;;1.10;0.60;;;;;;;7.76;100.00;99728.06;7393207;19;20011;-49
2022/05/12 03:41:20;;;;;;;0.40;0.40;;;;;;;7.78;100.00;99736.69;7394178;19;20027;-49
2022/05/12 03:46:31;;;;;;;0.30;0.30;;;;;;;7.70;100.00;99741.00;7392840;19;20006;-49
2022/05/12 03:48:59;;;;;;;4.10;1.08;;;;;;;7.60;100.00;99740.97;7393611;19;20018;-49
2022/05/12 03:51:25;;;;;;;2.47;1.25;;;;;;;7.49;100.00;99740.63;7393067;19;20344;-49
2022/05/12 03:53:51;;;;;;;1.83;0.85;;;;;;;7.41;100.00;99750.47;7393636;19;20369;-49
2022/05/12 03:56:18;;;;;;;0.73;0.63;;;;;;;7.34;100.00;99736.88;7392419;19;20015;-49
2022/05/12 03:58:44;;;;;;;0.70;0.70;;;;;;;7.28;100.00;99741.50;7391791;19;20742;-49
2022/05/12 04:01:10;;;;;;;0.70;0.70;;;;;;;7.23;100.00;99742.09;7391556;19;20011;-49
2022/05/12 04:03:37;;;;;;;0.57;0.57;;;;;;;7.15;100.00;99740.81;7393662;19;20010;-49
2022/05/12 04:06:06;;;;;;;0.52;0.38;;;;;;;7.16;100.00;99741.59;7391486;19;20336;-49
2022/05/12 04:08:33;;;;;;;0.75;0.75;;;;;;;7.19;100.00;99747.00;7391625;19;20031;-49
2022/05/12 04:11:00;;;;;;;0.63;0.63;;;;;;;7.21;100.00;99747.31;7391309;19;20011;-49
2022/05/12 04:13:26;;;;;;;0.55;0.55;;;;;;;7.21;100.00;99754.84;7394361;19;20017;-49
2022/05/12 04:15:53;;;;;;;0.55;0.55;;;;;;;7.20;100.00;99743.00;7390740;19;20025;-49
2022/05/12 04:18:19;;;;;;;2.45;0.63;;;;;;;7.20;100.00;99748.53;7391319;19;20010;-49
2022/05/12 04:20:45;;;;;;;0.50;0.50;;;;;;;7.19;100.00;99747.00;7389400;19;20025;-49
2022/05/12 04:23:12;;;;;;;0.45;0.45;;;;;;;7.13;100.00;99754.34;7391721;19;20081;-49
2022/05/12 04:25:38;;;;;;;0.52;0.52;;;;;;;7.08;100.00;99754.94;7389985;19;20010;-49
2022/05/12 04:28:05;;;;;;;0.50;0.50;;;;;;;7.08;100.00;99749.41;7390615;19;20011;-49
2022/05/12 04:30:32;;;;;;;0.90;0.57;;;;;;;7.07;100.00;99752.63;7394540;19;20022;-49
2022/05/12 04:35:09;;;;;;;0.73;0.68;;;;;;;7.06;100.00;99762.91;7390367;19;20015;-49
2022/05/12 04:35:45;;;;;;;0.32;0.32;;;;;;;7.07;100.00;99758.94;7391477;19;20035;-49
2022/05/12 04:38:11;;;;;;;0.43;0.43;;;;;;;7.07;100.00;99769.25;7390309;19;20016;-49
2022/05/12 04:40:38;;;;;;;0.30;0.20;;;;;;;7.10;100.00;99782.19;7389046;19;20769;-49
2022/05/12 04:43:04;;;;;;;6.60;1.02;;;;;;;7.11;100.00;99778.97;7393912;19;20014;-49
2022/05/12 04:45:32;;;;;;;0.30;0.30;;;;;;;7.13;100.00;99775.72;7389812;19;20007;-49
2022/05/12 04:47:59;;;;;;;0.73;0.73;;;;;;;7.12;100.00;99777.75;7390067;19;20014;-49
2022/05/12 04:50:29;;;;;;;0.45;0.45;;;;;;;7.10;100.00;99788.50;7388680;19;20014;-49
2022/05/12 04:52:56;;;;;;;0.70;0.70;;;;;;;7.11;100.00;99778.97;7390675;19;20022;-49
2022/05/12 04:55:23;;;;;;;0.50;0.50;;;;;;;7.12;100.00;99791.59;7389711;19;20018;-49
2022/05/12 04:57:53;;;;;;;0.70;0.70;;;;;;;7.14;100.00;99789.13;7389306;19;20010;-49
2022/05/12 05:00:24;;;;;;;1.20;1.20;;;;;;;7.19;100.00;99802.38;7388477;19;20007;-49
2022/05/12 05:02:51;;;;;;;0.50;0.50;;;;;;;7.23;100.00;99803.03;7390684;19;20223;-49
2022/05/12 05:05:17;;;;;;;0.45;0.45;;;;;;;7.30;100.00;99802.75;7389467;19;20011;-49
2022/05/12 05:07:43;;;;;;;0.52;0.52;;;;;;;7.34;100.00;99813.69;7388514;19;20631;-49
2022/05/12 05:10:12;;;;;;;0.40;0.40;;;;;;;7.34;100.00;99808.91;7389204;19;20034;-49
2022/05/12 05:12:41;;;;;;;0.77;0.77;;;;;;;7.38;100.00;99820.66;7391595;19;20070;-49
2022/05/12 05:15:09;;;;;;;0.47;0.40;;;;;;;7.47;100.00;99812.34;7388953;19;20025;-49
2022/05/12 05:17:35;;;;;;;0.45;0.45;;;;;;;7.51;100.00;99818.53;7388420;19;20011;-49
2022/05/12 05:20:06;;;;;;;0.73;0.73;;;;;;;7.60;100.00;99829.66;7388213;19;20526;-49
2022/05/12 05:22:33;;;;;;;0.57;0.57;;;;;;;7.77;100.00;99834.97;7389264;19;20014;-49
2022/05/12 05:25:00;;;;;;;0.80;0.52;;;;;;;7.92;100.00;99835.94;7388520;19;20461;-49
2022/05/12 05:27:26;;;;;;;4.45;1.15;;;;;;;8.09;100.00;99835.22;7389527;19;20006;-49
2022/05/12 05:29:52;;;;;;;0.50;0.50;;;;;;;8.23;100.00;99833.84;7392031;19;20736;-49
2022/05/12 05:32:20;;;;;;;0.20;0.20;;;;;;;8.26;100.00;99832.94;7388791;19;20030;-49
2022/05/12 05:34:46;;;;;;;6.10;1.15;;;;;;;8.28;100.00;99836.81;7397254;19;20019;-49
2022/05/12 05:37:12;;;;;;;0.55;0.55;;;;;;;8.43;100.00;99836.19;7395473;19;20555;-49
2022/05/12 05:39:39;;;;;;;0.55;0.55;;;;;;;8.62;100.00;99838.53;7396410;19;20003;-49
2022/05/12 05:42:11;;;;;;;1.23;1.13;;;;;;;8.91;100.00;99838.84;7398227;19;20481;-49
2022/05/12 05:44:38;;;;;;;0.32;0.32;;;;;;;9.13;100.00;99839.41;7400258;19;20015;-49
2022/05/12 05:47:05;;;;;;;12.68;2.38;;;;;;;9.49;100.00;99834.97;7395700;19;20038;-49
2022/05/12 05:49:32;;;;;;;10.70;2.63;;;;;;;9.72;100.00;99837.06;7394044;19;20015;-49
2022/05/12 05:54:51;;;;;;;1.23;0.57;;;;;;;10.40;100.00;99832.53;7393942;19;20423;-49
2022/05/12 05:57:36;;;;;;;1.70;1.27;;;;;;;10.54;100.00;99835.38;7392656;19;20011;-49
2022/05/12 06:00:05;;;;;;;1.13;0.85;;;;;;;10.60;100.00;99839.03;7395197;19;20347;-49
2022/05/12 06:02:32;;;;;;;1.15;1.05;;;;;;;10.77;100.00;99858.09;7394991;19;20077;-49
2022/05/12 06:04:58;;;;;;;0.30;0.30;;;;;;;10.98;100.00;99854.22;7394460;19;20033;-49
2022/05/12 06:07:25;;;;;;;1.80;0.63;;;;;;;11.23;100.00;99864.78;7396086;19;20011;-49
2022/05/12 06:09:52;;;;;;;1.75;1.05;;;;;;;11.44;100.00;99858.84;7395819;19;20019;-49
2022/05/12 06:12:18;;;;;;;0.57;0.57;;;;;;;11.74;100.00;99867.97;7397110;19;20010;-49
2022/05/12 06:14:44;;;;;;;1.38;0.47;;;;;;;11.90;100.00;99873.06;7395495;19;20015;-49
2022/05/12 06:17:10;;;;;;;1.08;1.05;;;;;;;12.01;100.00;99878.81;7393612;19;20038;-49
2022/05/12 06:19:37;;;;;;;0.50;0.50;;;;;;;12.14;100.00;99881.28;7395190;19;20018;-49
2022/05/12 06:22:03;;;;;;;6.07;1.50;;;;;;;12.21;100.00;99874.50;7395287;19;20018;-49
2022/05/12 06:24:29;;;;;;;10.60;0.98;;;;;;;12.36;100.00;99880.81;7398747;19;20114;-49
2022/05/12 06:26:55;;;;;;;2.45;0.70;;;;;;;12.39;100.00;99879.84;7392306;19;20062;-49
2022/05/12 06:29:21;;;;;;;7.07;1.08;;;;;;;12.40;100.00;99882.16;7397115;19;20022;-49
2022/05/12 06:31:48;;;;;;;0.60;0.50;;;;;;;12.44;100.00;99893.09;7394562;19;20025;-49
2022/05/12 06:34:15;;;;;;;0.50;0.50;;;;;;;12.57;100.00;99893.53;7394980;19;20010;-49
2022/05/12 06:36:43;;;;;;;0.30;0.30;;;;;;;12.77;100.00;99879.56;7394850;19;20652;-49
2022/05/12 06:39:10;;;;;;;10.98;0.95;;;;;;;12.80;100.00;99881.38;7394911;19;20050;-50
2022/05/12 06:41:36;;;;;;;1.70;0.82;;;;;;;12.83;100.00;99888.78;7394934;19;20088;-50
2022/05/12 06:44:04;;;;;;;5.25;0.50;;;;;;;12.85;100.00;99897.44;7396869;19;20014;-50
2022/05/12 06:46:31;;;;;;;5.95;0.90;;;;;;;13.05;100.00;99899.50;7391140;19;20398;-50
2022/05/12 06:48:57;;;;;;;0.68;0.60;;;;;;;13.18;100.00;99891.50;7394946;19;20514;-50
2022/05/12 06:51:23;;;;;;;0.28;0.28;;;;;;;13.27;100.00;99897.72;7392461;19;20003;-50
2022/05/12 06:53:50;;;;;;;7.40;0.60;;;;;;;13.28;100.00;99899.22;7393829;19;20077;-50
2022/05/12 06:56:16;;;;;;;3.83;1.05;;;;;;;13.33;100.00;99901.31;7393666;19;20015;-50
2022/05/12 06:58:42;;;;;;;0.30;0.20;;;;;;;13.38;100.00;99897.81;7394333;19;20109;-50
2022/05/12 07:01:10;;;;;;;0.77;0.60;;;;;;;13.38;100.00;99897.06;7393483;19;20490;-50
2022/05/12 07:03:37;;;;;;;5.57;0.63;;;;;;;13.50;100.00;99899.47;7396349;19;20467;-50
2022/05/12 07:06:06;;;;;;;0.43;0.22;;;;;;;13.58;100.00;99896.97;7393390;19;20459;-50
2022/05/12 07:08:32;;;;;;;0.20;0.10;;;;;;;13.73;100.00;99894.06;7392864;19;20328;-50
2022/05/12 07:10:58;;;;;;;3.33;0.43;;;;;;;13.80;100.00;99894.38;7392926;19;20623;-50
2022/05/12 07:13:24;;;;;;;0.28;0.20;;;;;;;13.85;100.00;99898.47;7396849;19;20015;-50
2022/05/12 07:15:51;;;;;;;3.17;0.57;;;;;;;13.92;100.00;99900.84;7391858;19;20042;-51
2022/05/12 07:18:18;;;;;;;0.40;0.40;;;;;;;14.00;100.00;99908.28;7392097;19;20011;-50
2022/05/12 07:28:58;;;;;;;2.08;0.43;;;;;;;14.71;100.00;99900.84;7393333;19;20011;-51
2022/05/12 07:31:25;;;;;;;1.33;0.32;;;;;;;14.74;100.00;99906.22;7390159;19;20010;-51
2022/05/12 07:33:51;;;;;;;0.55;0.47;;;;;;;14.84;100.00;99907.53;7393751;19;20018;-51
2022/05/12 07:36:26;;;;;;;0.22;0.20;;;;;;;15.03;100.00;99914.22;7393075;19;20034;-51
2022/05/12 07:38:55;;;;;;;0.98;0.52;;;;;;;15.09;100.00;99906.59;7392384;19;20011;-51
2022/05/12 07:41:22;;;;;;;0.77;0.20;;;;;;;15.09;100.00;99906.59;7392334;19;20018;-51
2022/05/12 07:43:51;;;;;;;2.17;0.10;;;;;;;15.05;100.00;99905.31;7394153;19;20007;-51
2022/05/12 07:46:20;;;;;;;0.30;0.30;;;;;;;15.08;100.00;99899.47;7391674;19;20351;-51
2022/05/12 07:48:46;;;;;;;0.32;0.20;;;;;;;15.18;100.00;99905.63;7392062;19;20117;-51
2022/05/12 07:51:12;;;;;;;0.28;0.28;;;;;;;15.24;100.00;99922.44;7391148;19;20014;-51
2022/05/12 07:53:39;;;;;;;0.95;0.60;;;;;;;15.30;100.00;99920.44;7393349;19;20011;-51
2022/05/12 07:56:06;;;;;;;0.50;0.30;;;;;;;15.26;100.00;99925.50;7390004;19;20013;-51
2022/05/12 07:58:32;;;;;;;0.52;0.40;;;;;;;15.38;100.00;99927.06;7391969;19;20010;-51
2022/05/12 08:00:59;;;;;;;0.65;0.28;;;;;;;15.38;100.00;99927.84;7390885;19;20015;-51
2022/05/12 08:03:26;;;;;;;0.20;0.20;;;;;;;15.50;100.00;99931.47;7393787;19;20007;-51
2022/05/12 08:05:53;;;;;;;0.10;0.10;;;;;;;15.46;100.00;99945.00;7390745;19;20021;-50
2022/05/12 08:08:20;;;;;;;5.43;1.08;;;;;;;15.47;100.00;99958.50;7391680;19;20509;-50
2022/05/12 08:10:46;;;;;;;1.40;0.28;;;;;;;15.65;100.00;99946.06;7391169;19;20014;-51
2022/05/12 08:13:16;;;;;;;0.43;0.30;;;;;;;15.80;100.00;99946.56;7394543;19;20010;-51
2022/05/12 08:15:43;;;;;;;5.15;0.40;;;;;;;15.72;100.00;99939.94;7390929;19;20011;-51
2022/05/12 08:18:09;;;;;;;0.10;0.10;;;;;;;15.69;100.00;99946.56;7390967;19;20410;-51
2022/05/12 08:20:36;;;;;;;3.17;0.35;;;;;;;15.71;100.00;99944.00;7390974;19;20010;-51
2022/05/12 08:23:02;;;;;;;3.97;0.30;;;;;;;15.76;100.00;99954.50;7392341;19;20006;-51
2022/05/12 08:25:29;;;;;;;0.65;0.55;;;;;;;15.89;100.00;99954.75;7389451;19;20010;-50
2022/05/12 08:27:56;;;;;;;2.58;0.20;;;;;;;16.04;100.00;99955.28;7390333;19;20002;-50
2022/05/12 08:30:22;;;;;;;1.27;0.25;;;;;;;16.19;100.00;99963.44;7394530;19;20389;-51
2022/05/12 08:32:48;;;;;;;0.20;0.20;;;;;;;16.35;100.00;99963.41;7390572;19;20010;-51
2022/05/12 08:35:14;;;;;;;0.10;0.00;;;;;;;16.40;100.00;99959.84;7390707;19;20014;-52
2022/05/12 08:37:41;;;;;;;0.10;0.10;;;;;;;16.43;100.00;99970.06;7390554;19;20022;-51
2022/05/12 08:40:16;;;;;;;0.95;0.30;;;;;;;16.36;100.00;99970.59;7390428;19;20011;-52
2022/05/12 08:42:45;;;;;;;0.60;0.20;;;;;;;16.33;100.00;99965.97;7393107;19;20026;-52
2022/05/12 08:45:14;;;;;;;0.55;0.43;;;;;;;16.19;100.00;99967.03;7389421;19;20018;-51
2022/05/12 08:47:44;;;;;;;0.30;0.10;;;;;;;15.99;100.00;99970.06;7389713;19;20089;-51
2022/05/12 08:50:20;;;;;;;0.45;0.30;;;;;;;15.70;100.00;99970.56;7390238;19;20014;-51
2022/05/12 08:52:54;;;;;;;2.17;0.15;;;;;;;15.60;100.00;99969.25;7389647;19;20378;-51
2022/05/12 08:55:25;;;;;;;0.10;0.10;;;;;;;15.53;100.00;99972.53;7389621;19;20015;-51
2022/05/12 08:58:06;;;;;;;3.70;0.35;;;;;;;15.64;100.00;99972.56;7389766;19;20006;-51
2022/05/12 09:00:47;;;;;;;0.52;0.28;;;;;;;15.77;100.00;99970.81;7389557;19;20015;-51
2022/05/12 09:03:32;;;;;;;0.10;0.10;;;;;;;16.09;100.00;99968.53;7389732;19;20015;-51
2022/05/12 09:06:06;;;;;;;2.78;0.43;;;;;;;16.37;100.00;99977.72;7388362;19;20021;-51
2022/05/12 09:08:41;;;;;;;0.10;0.10;;;;;;;16.42;100.00;99976.97;7385099;19;20014;-51
2022/05/12 09:11:23;;;;;;;0.98;0.17;;;;;;;16.27;100.00;99973.66;7387785;19;20014;-51
2022/05/12 09:13:53;;;;;;;1.15;0.22;;;;;;;16.06;100.00;99983.63;7389068;19;20011;-51
2022/05/12 09:16:23;;;;;;;0.20;0.10;;;;;;;15.91;100.00;99981.06;7388229;19;20088;-51
2022/05/12 09:18:51;;;;;;;0.93;0.20;;;;;;;15.82;100.00;99977.72;7389509;19;20018;-51
2022/05/12 09:21:31;;;;;;;1.13;0.00;;;;;;;15.64;100.00;99981.78;7387865;19;20015;-51
2022/05/12 09:23:58;;;;;;;;;;;;;;;15.52;100.00;99982.25;7391911;19;20372;-51
2022/05/12 09:26:29;;;;;;;0.50;0.28;;;;;;;15.53;100.00;99983.78;7388316;19;19911;-51
2022/05/12 09:29:22;;;;;;;0.35;0.10;;;;;;;15.65;100.00;99985.34;7390023;19;20370;-51
2022/05/12 09:31:55;;;;;;;2.38;0.20;;;;;;;15.84;100.00;99980.78;7387587;19;20093;-51
2022/05/12 09:34:32;;;;;;;0.10;0.10;;;;;;;16.12;100.00;99978.75;7388646;19;20325;-52
2022/05/12 09:37:15;;;;;;;0.17;0.17;;;;;;;16.39;100.00;99978.00;7386713;19;20026;-51
2022/05/12 09:39:44;;;;;;;1.95;0.82;;;;;;;16.43;100.00;99961.63;7387702;19;20019;-51
2022/05/12 09:42:47;;;;;;;0.80;0.20;;;;;;;16.49;100.00;99968.00;7389156;19;20015;-51
2022/05/12 09:45:25;;;;;;;1.75;0.73;;;;;;;16.59;100.00;99960.84;7385687;19;20007;-51
2022/05/12 09:48:20;;;;;;;2.65;0.20;;;;;;;16.67;100.00;99961.84;7386706;19;20710;-51
2022/05/12 09:50:48;;;;;;;0.10;0.10;;;;;;;16.73;100.00;99975.16;7388541;19;20518;-51
2022/05/12 09:53:29;;;;;;;0.80;0.20;;;;;;;16.66;100.00;99976.44;7388813;19;20019;-51
2022/05/12 09:56:09;;;;;;;1.13;0.65;;;;;;;16.59;100.00;99966.47;7387756;19;20082;-51
2022/05/12 09:58:41;;;;;;;0.10;0.10;;;;;;;16.51;100.00;99968.28;7388040;19;20079;-51
2022/05/12 10:01:19;;;;;;;8.30;0.20;;;;;;;16.40;100.00;99968.28;7386516;19;20011;-51
2022/05/12 10:09:22;;;;;;;0.30;0.30;;;;;;;16.45;100.00;99955.50;7387637;19;20010;-52
2022/05/12 10:12:19;;;;;;;0.10;0.10;;;;;;;16.83;100.00;99945.47;7388697;19;20010;-50
2022/05/12 10:14:51;;;;;;;0.10;0.10;;;;;;;17.07;100.00;99952.00;7389694;19;20010;-50
2022/05/12 10:17:35;;;;;;;1.13;0.22;;;;;;;17.18;100.00;99945.56;7388135;19;20015;-50
2022/05/12 10:20:08;;;;;;;0.10;0.00;;;;;;;17.08;100.00;99941.53;7392096;19;20011;-50
2022/05/12 10:22:42;;;;;;;3.40;0.73;;;;;;;17.05;100.00;99945.38;7395431;19;20014;-50
2022/05/12 10:25:27;;;;;;;0.40;0.05;;;;;;;17.10;100.00;99958.66;7395000;19;20370;-51
2022/05/12 10:28:14;;;;;;;0.47;0.22;;;;;;;17.15;100.00;99955.81;7393141;19;20021;-51
2022/05/12 10:30:54;;;;;;;1.15;0.22;;;;;;;17.16;100.00;99962.22;7394887;19;20014;-50
2022/05/12 10:33:36;;;;;;;0.73;0.15;;;;;;;17.24;100.00;99963.97;7394534;19;20018;-50
2022/05/12 10:36:35;;;;;;;0.85;0.22;;;;;;;17.31;100.00;99954.22;7393093;19;20025;-50
2022/05/12 10:39:50;;;;;;;0.55;0.10;;;;;;;17.31;100.00;99954.22;7394197;19;20519;-50
2022/05/12 10:43:06;;;;;;;0.17;0.17;;;;;;;17.06;100.00;99961.75;7393220;19;20470;-50
2022/05/12 10:45:39;;;;;;;0.10;0.00;;;;;;;16.99;100.00;99953.84;7392374;19;20030;-51
2022/05/12 10:48:20;;;;;;;0.47;0.20;;;;;;;16.70;100.00;99945.25;7394165;19;20011;-51
2022/05/12 10:50:57;;;;;;;0.10;0.10;;;;;;;16.34;100.00;99953.47;7393747;19;20014;-51
2022/05/12 10:53:51;;;;;;;0.57;0.28;;;;;;;16.25;100.00;99956.53;7389853;19;20751;-51
2022/05/12 10:56:35;;;;;;;3.05;0.30;;;;;;;16.64;100.00;99945.25;7393644;19;20014;-51
2022/05/12 10:59:13;;;;;;;0.10;0.10;;;;;;;16.96;100.00;99942.84;7393418;19;20343;-50
2022/05/12 11:01:59;;;;;;;1.17;0.35;;;;;;;16.99;100.00;99947.44;7394166;19;20009;-51
2022/05/12 11:04:38;;;;;;;3.80;0.35;;;;;;;16.92;100.00;99943.13;7390831;19;20022;-51
2022/05/12 11:07:11;;;;;;;2.40;0.30;;;;;;;16.77;100.00;99939.06;7396530;19;20011;-51
2022/05/12 11:09:45;;;;;;;0.75;0.20;;;;;;;16.67;100.00;99939.34;7393544;19;20118;-50
2022/05/12 11:12:23;;;;;;;0.22;0.10;;;;;;;16.56;100.00;99942.22;7392847;19;20010;-50
2022/05/12 11:14:55;;;;;;;1.05;0.38;;;;;;;16.40;100.00;99940.16;7393279;19;20015;-50
2022/05/12 11:17:39;;;;;;;0.10;0.10;;;;;;;16.18;100.00;99931.75;7396360;19;20567;-51
2022/05/12 11:20:32;;;;;;;2.22;0.32;;;;;;;16.10;100.00;99944.78;7392721;19;20023;-50
2022/05/12 11:23:12;;;;;;;0.10;0.10;;;;;;;16.13;100.00;99935.34;7394050;19;20017;-50
2022/05/12 11:26:04;;;;;;;6.85;0.70;;;;;;;16.16;100.00;99928.69;7393124;19;20439;-51
2022/05/12 11:31:59;;;;;;;0.70;0.35;;;;;;;16.50;100.00;99924.56;7390479;19;20014;-51
2022/05/12 11:34:27;;;;;;;0.30;0.30;;;;;;;16.99;100.00;99924.94;7393207;19;20347;-51
2022/05/12 11:36:55;;;;;;;0.20;0.20;;;;;;;17.33;100.00;99921.44;7392466;19;20348;-51
2022/05/12 11:39:27;;;;;;;0.63;0.28;;;;;;;17.63;100.00;99927.16;7392789;19;20074;-51
2022/05/12 11:42:14;;;;;;;1.98;0.28;;;;;;;17.81;100.00;99931.38;7393503;19;20053;-51
2022/05/12 11:45:18;;;;;;;0.45;0.20;;;;;;;17.79;100.00;99929.09;7397072;19;20029;-51
2022/05/12 11:48:00;;;;;;;2.72;0.25;;;;;;;17.89;100.00;99921.06;7390572;19;20010;-51
2022/05/12 11:50:40;;;;;;;0.90;0.25;;;;;;;17.99;100.00;99927.94;7391463;19;20353;-51
2022/05/12 11:53:16;;;;;;;0.20;0.20;;;;;;;17.98;100.00;99923.56;7391486;19;20013;-51
2022/05/12 11:56:03;;;;;;;1.48;0.20;;;;;;;18.57;100.00;99917.16;7392739;19;20034;-51
2022/05/12 11:58:29;;;;;;;1.33;0.38;;;;;;;19.25;100.00;99913.00;7392362;19;20006;-51
2022/05/12 12:00:58;;;;;;;0.63;0.28;;;;;;;19.51;100.00;99913.16;7395425;19;20010;-51
2022/05/12 12:03:27;;;;;;;0.30;0.20;;;;;;;19.23;99.93;99909.94;7392459;19;20074;-49
2022/05/12 12:05:53;;;;;;;1.60;0.32;;;;;;;18.88;100.00;99906.00;7390262;19;20015;-50
2022/05/12 12:08:32;;;;;;;1.58;0.25;;;;;;;18.36;100.00;99919.66;7388742;19;20115;-49